createdAt,value
2018-02-20T00:00:07.097Z,4.05
2018-02-20T00:01:21.368Z,4.04
2018-02-20T00:02:35.895Z,4.03
2018-02-20T00:03:50.126Z,4.02
2018-02-20T00:05:04.918Z,4.02
2018-02-20T00:06:18.807Z,4.02
2018-02-20T00:07:32.658Z,4.02
2018-02-20T00:08:47.219Z,4.02
2018-02-20T00:10:01.353Z,4.03
2018-02-20T00:11:15.381Z,4.01
2018-02-20T00:12:29.678Z,4.01
2018-02-20T00:13:43.764Z,4
2018-02-20T00:14:58.160Z,3.99
2018-02-20T00:16:11.944Z,3.98
2018-02-20T00:17:26.342Z,3.98
2018-02-20T00:18:40.361Z,3.99
2018-02-20T00:19:54.885Z,3.99
2018-02-20T00:21:08.785Z,3.99
2018-02-20T00:22:23.321Z,3.99
2018-02-20T00:23:37.607Z,4
2018-02-20T00:24:52.102Z,4
2018-02-20T00:26:06.099Z,4
2018-02-20T00:27:19.887Z,4
2018-02-20T00:28:34.145Z,3.99
2018-02-20T00:29:48.716Z,4
2018-02-20T00:31:02.959Z,3.99
2018-02-20T00:32:17.255Z,3.98
2018-02-20T00:33:31.285Z,3.96
2018-02-20T00:34:45.951Z,3.98
2018-02-20T00:36:00.533Z,3.95
2018-02-20T00:37:15.067Z,3.98
2018-02-20T00:38:29.417Z,3.98
2018-02-20T00:39:43.689Z,3.98
2018-02-20T00:40:58.432Z,3.97
2018-02-20T00:42:12.960Z,3.96
2018-02-20T00:43:27.220Z,3.94
2018-02-20T00:44:41.217Z,3.93
2018-02-20T00:45:55.028Z,3.92
2018-02-20T00:47:09.540Z,3.9
2018-02-20T00:48:24.053Z,3.89
2018-02-20T00:49:38.343Z,3.87
2018-02-20T00:50:52.514Z,3.85
2018-02-20T00:52:06.551Z,3.85
2018-02-20T00:53:20.315Z,3.87
2018-02-20T00:54:34.824Z,3.87
2018-02-20T00:55:49.095Z,3.89
2018-02-20T00:57:03.362Z,3.9
2018-02-20T00:58:17.655Z,3.9
2018-02-20T00:59:31.686Z,3.93
2018-02-20T01:00:45.700Z,3.94
2018-02-20T01:01:59.710Z,3.95
2018-02-20T01:03:13.989Z,3.95
2018-02-20T01:04:28.219Z,3.97
2018-02-20T01:05:41.733Z,3.98
2018-02-20T01:06:55.745Z,3.98
2018-02-20T01:08:09.784Z,3.99
2018-02-20T01:09:24.045Z,4.01
2018-02-20T01:10:38.535Z,4.03
2018-02-20T01:11:52.819Z,4.05
2018-02-20T01:13:07.299Z,4.05
2018-02-20T01:14:22.057Z,4.06
2018-02-20T01:15:36.538Z,4.09
2018-02-20T01:16:51.256Z,4.08
2018-02-20T01:18:05.272Z,4.08
2018-02-20T01:19:18.790Z,4.05
2018-02-20T01:20:32.815Z,4.02
2018-02-20T01:21:46.572Z,3.99
2018-02-20T01:23:01.089Z,3.98
2018-02-20T01:24:15.703Z,3.98
2018-02-20T01:25:29.696Z,4.01
2018-02-20T01:26:43.940Z,4.03
2018-02-20T01:27:57.441Z,4.05
2018-02-20T01:29:11.472Z,4.07
2018-02-20T01:30:25.976Z,4.09
2018-02-20T01:31:39.456Z,4.09
2018-02-20T01:32:53.677Z,4.08
2018-02-20T01:34:07.708Z,4.07
2018-02-20T01:35:21.713Z,4.08
2018-02-20T01:36:35.704Z,4.08
2018-02-20T01:37:50.419Z,4.08
2018-02-20T01:39:04.672Z,4.08
2018-02-20T01:40:18.210Z,4.05
2018-02-20T01:41:31.975Z,4.05
2018-02-20T01:42:46.251Z,4.04
2018-02-20T01:44:00.478Z,4.04
2018-02-20T01:45:14.463Z,4.03
2018-02-20T01:46:29.195Z,4.03
2018-02-20T01:47:43.697Z,4.04
2018-02-20T01:48:57.695Z,4.05
2018-02-20T01:50:12.152Z,4.08
2018-02-20T01:51:26.416Z,4.08
2018-02-20T01:52:40.397Z,4.05
2018-02-20T01:53:54.905Z,4.03
2018-02-20T01:55:09.127Z,4.01
2018-02-20T01:56:23.385Z,4.02
2018-02-20T01:57:37.724Z,4.04
2018-02-20T01:58:51.951Z,4.05
2018-02-20T02:00:05.976Z,4.05
2018-02-20T02:01:20.236Z,4.05
2018-02-20T02:02:34.459Z,4.02
2018-02-20T02:03:48.438Z,3.99
2018-02-20T02:05:02.670Z,3.98
2018-02-20T02:06:17.189Z,3.97
2018-02-20T02:07:30.925Z,3.94
2018-02-20T02:08:45.385Z,3.92
2018-02-20T02:10:00.119Z,3.9
2018-02-20T02:11:14.077Z,3.89
2018-02-20T02:12:28.575Z,3.87
2018-02-20T02:13:43.049Z,3.86
2018-02-20T02:14:57.065Z,3.87
2018-02-20T02:16:11.545Z,3.89
2018-02-20T02:17:25.807Z,3.91
2018-02-20T02:18:40.301Z,3.9
2018-02-20T02:19:55.101Z,3.9
2018-02-20T02:21:09.624Z,3.89
2018-02-20T02:22:24.102Z,3.88
2018-02-20T02:23:38.307Z,3.87
2018-02-20T02:25:07.621Z,3.85
2018-02-20T02:26:21.906Z,3.84
2018-02-20T02:27:35.670Z,3.84
2018-02-20T02:28:49.714Z,3.84
2018-02-20T02:30:03.846Z,3.85
2018-02-20T02:31:18.599Z,3.86
2018-02-20T02:32:33.111Z,3.85
2018-02-20T02:33:47.576Z,3.87
2018-02-20T02:35:01.362Z,3.9
2018-02-20T02:36:15.388Z,3.92
2018-02-20T02:37:30.106Z,3.9
2018-02-20T02:38:44.861Z,3.89
2018-02-20T02:39:59.334Z,3.87
2018-02-20T02:41:13.348Z,3.85
2018-02-20T02:42:27.848Z,3.84
2018-02-20T02:43:42.308Z,3.85
2018-02-20T02:44:56.546Z,3.83
2018-02-20T02:46:10.534Z,3.78
2018-02-20T02:47:25.005Z,3.71
2018-02-20T02:48:39.232Z,3.67
2018-02-20T02:49:53.241Z,3.65
2018-02-20T02:51:07.785Z,3.65
2018-02-20T02:52:21.522Z,3.63
2018-02-20T02:53:36.254Z,3.61
2018-02-20T02:54:49.980Z,3.59
2018-02-20T02:56:04.472Z,3.55
2018-02-20T02:57:18.744Z,3.53
2018-02-20T02:58:33.257Z,3.52
2018-02-20T02:59:47.798Z,3.45
2018-02-20T03:01:02.026Z,3.36
2018-02-20T03:02:16.538Z,3.32
2018-02-20T03:03:30.395Z,3.22
2018-02-20T03:04:44.406Z,3.12
2018-02-20T03:05:58.904Z,3.11
2018-02-20T03:07:13.531Z,3.08
2018-02-20T03:08:28.259Z,3.05
2018-02-20T03:09:42.744Z,3.02
2018-02-20T03:10:57.006Z,2.98
2018-02-20T03:12:11.262Z,2.93
2018-02-20T03:13:25.738Z,2.87
2018-02-20T03:14:39.729Z,2.84
2018-02-20T03:15:54.004Z,2.81
2018-02-20T03:17:08.246Z,2.79
2018-02-20T03:18:22.474Z,2.76
2018-02-20T03:19:36.962Z,2.76
2018-02-20T03:20:51.438Z,2.8
2018-02-20T03:22:05.927Z,2.81
2018-02-20T03:23:20.412Z,2.81
2018-02-20T03:24:34.892Z,2.83
2018-02-20T03:25:48.870Z,2.83
2018-02-20T03:27:02.373Z,2.83
2018-02-20T03:28:16.622Z,2.83
2018-02-20T03:29:31.095Z,2.84
2018-02-20T03:30:44.849Z,2.86
2018-02-20T03:31:58.596Z,2.86
2018-02-20T03:33:12.324Z,2.86
2018-02-20T03:34:26.320Z,2.86
2018-02-20T03:35:40.533Z,2.85
2018-02-20T03:36:54.626Z,2.79
2018-02-20T03:38:08.602Z,2.74
2018-02-20T03:39:22.619Z,2.69
2018-02-20T03:40:36.608Z,2.66
2018-02-20T03:41:50.605Z,2.6
2018-02-20T03:43:05.093Z,2.55
2018-02-20T03:44:19.379Z,2.54
2018-02-20T03:45:33.870Z,2.46
2018-02-20T03:46:48.102Z,2.39
2018-02-20T03:48:02.590Z,2.34
2018-02-20T03:49:16.574Z,2.27
2018-02-20T03:50:31.071Z,2.21
2018-02-20T03:51:45.102Z,2.21
2018-02-20T03:52:59.568Z,2.19
2018-02-20T03:54:13.835Z,2.2
2018-02-20T03:55:28.307Z,2.19
2018-02-20T03:56:42.813Z,2.14
2018-02-20T03:57:56.804Z,2.08
2018-02-20T03:59:11.114Z,2.02
2018-02-20T04:00:25.097Z,1.98
2018-02-20T04:01:39.105Z,1.9
2018-02-20T04:02:53.616Z,1.84
2018-02-20T04:04:08.147Z,1.76
2018-02-20T04:05:22.875Z,1.72
2018-02-20T04:06:36.403Z,1.68
2018-02-20T04:07:49.928Z,1.67
2018-02-20T04:09:04.176Z,1.68
2018-02-20T04:10:18.787Z,1.71
2018-02-20T04:11:32.815Z,1.73
2018-02-20T04:12:47.337Z,1.77
2018-02-20T04:14:01.863Z,1.81
2018-02-20T04:15:16.338Z,1.83
2018-02-20T04:16:30.576Z,1.83
2018-02-20T04:17:44.580Z,1.84
2018-02-20T04:18:58.834Z,1.84
2018-02-20T04:20:13.076Z,1.83
2018-02-20T04:21:26.839Z,1.82
2018-02-20T04:22:41.359Z,1.84
2018-02-20T04:23:55.895Z,1.87
2018-02-20T04:25:10.373Z,1.91
2018-02-20T04:26:24.377Z,1.93
2018-02-20T04:27:38.406Z,1.93
2018-02-20T04:28:53.190Z,1.87
2018-02-20T04:30:07.181Z,1.8
2018-02-20T04:31:21.708Z,1.76
2018-02-20T04:32:36.430Z,1.72
2018-02-20T04:33:51.110Z,1.7
2018-02-20T04:35:05.439Z,1.65
2018-02-20T04:36:19.955Z,1.62
2018-02-20T04:37:34.208Z,1.56
2018-02-20T04:38:49.162Z,1.51
2018-02-20T04:40:03.487Z,1.46
2018-02-20T04:41:17.714Z,1.44
2018-02-20T04:42:31.749Z,1.38
2018-02-20T04:43:45.609Z,1.36
2018-02-20T04:44:59.505Z,1.34
2018-02-20T04:46:13.513Z,1.33
2018-02-20T04:47:27.568Z,1.34
2018-02-20T04:48:41.823Z,1.33
2018-02-20T04:49:55.578Z,1.28
2018-02-20T04:51:09.616Z,1.25
2018-02-20T04:52:23.410Z,1.22
2018-02-20T04:53:37.689Z,1.18
2018-02-20T04:54:52.156Z,1.15
2018-02-20T04:56:06.200Z,1.12
2018-02-20T04:57:20.728Z,1.09
2018-02-20T04:58:34.760Z,1.07
2018-02-20T04:59:49.288Z,1.08
2018-02-20T05:01:03.568Z,1.08
2018-02-20T05:02:17.680Z,1.11
2018-02-20T05:03:32.201Z,1.12
2018-02-20T05:04:46.463Z,1.09
2018-02-20T05:06:00.745Z,1.09
2018-02-20T05:07:15.034Z,1.06
2018-02-20T05:08:29.107Z,1.06
2018-02-20T05:09:43.125Z,1.05
2018-02-20T05:10:57.492Z,1.03
2018-02-20T05:12:11.830Z,1.06
2018-02-20T05:13:25.874Z,1.06
2018-02-20T05:14:39.437Z,1.07
2018-02-20T05:15:52.967Z,1.09
2018-02-20T05:17:07.090Z,1.08
2018-02-20T05:18:21.089Z,1.07
2018-02-20T05:19:35.556Z,1.02
2018-02-20T05:20:50.314Z,0.99
2018-02-20T05:22:04.078Z,0.96
2018-02-20T05:23:18.453Z,0.95
2018-02-20T05:24:32.691Z,0.95
2018-02-20T05:25:46.716Z,0.98
2018-02-20T05:27:01.170Z,0.98
2018-02-20T05:28:15.656Z,0.97
2018-02-20T05:29:30.146Z,0.99
2018-02-20T05:30:44.129Z,1.01
2018-02-20T05:31:58.126Z,1.05
2018-02-20T05:33:12.854Z,1.05
2018-02-20T05:34:27.118Z,1.05
2018-02-20T05:35:41.357Z,1.06
2018-02-20T05:36:55.348Z,1.09
2018-02-20T05:38:09.853Z,1.09
2018-02-20T05:39:24.092Z,1.16
2018-02-20T05:40:38.587Z,1.22
2018-02-20T05:41:52.571Z,1.27
2018-02-20T05:43:06.798Z,1.31
2018-02-20T05:44:21.281Z,1.34
2018-02-20T05:45:35.529Z,1.34
2018-02-20T05:46:49.509Z,1.35
2018-02-20T05:48:03.726Z,1.38
2018-02-20T05:49:17.967Z,1.4
2018-02-20T05:50:32.338Z,1.45
2018-02-20T05:51:46.135Z,1.5
2018-02-20T05:53:00.379Z,1.53
2018-02-20T05:54:14.644Z,1.55
2018-02-20T05:55:28.682Z,1.57
2018-02-20T05:56:43.178Z,1.59
2018-02-20T05:57:57.762Z,1.63
2018-02-20T05:59:11.754Z,1.63
2018-02-20T06:00:26.041Z,1.62
2018-02-20T06:01:40.037Z,1.65
2018-02-20T06:02:54.031Z,1.66
2018-02-20T06:04:08.013Z,1.67
2018-02-20T06:05:22.558Z,1.71
2018-02-20T06:06:37.051Z,1.76
2018-02-20T06:07:51.532Z,1.76
2018-02-20T06:09:06.030Z,1.74
2018-02-20T06:10:20.315Z,1.75
2018-02-20T06:11:34.889Z,1.78
2018-02-20T06:12:48.925Z,1.81
2018-02-20T06:14:03.675Z,1.84
2018-02-20T06:15:17.926Z,1.86
2018-02-20T06:16:32.707Z,1.88
2018-02-20T06:17:47.449Z,1.9
2018-02-20T06:19:02.190Z,1.94
2018-02-20T06:20:16.231Z,1.94
2018-02-20T06:21:30.746Z,1.99
2018-02-20T06:22:45.270Z,1.96
2018-02-20T06:23:59.452Z,1.96
2018-02-20T06:25:13.995Z,1.94
2018-02-20T06:26:28.278Z,1.88
2018-02-20T06:27:42.073Z,1.88
2018-02-20T06:28:56.072Z,1.85
2018-02-20T06:30:10.809Z,1.81
2018-02-20T06:31:24.852Z,1.78
2018-02-20T06:32:39.088Z,1.75
2018-02-20T06:33:53.135Z,1.75
2018-02-20T06:35:07.410Z,1.78
2018-02-20T06:36:21.742Z,1.81
2018-02-20T06:37:35.763Z,1.84
2018-02-20T06:38:50.149Z,1.91
2018-02-20T06:40:04.514Z,1.96
2018-02-20T06:41:19.055Z,1.95
2018-02-20T06:42:33.069Z,1.99
2018-02-20T06:43:47.302Z,2.02
2018-02-20T06:45:01.836Z,2.08
2018-02-20T06:46:16.636Z,2.13
2018-02-20T06:47:30.889Z,2.12
2018-02-20T06:48:44.918Z,2.08
2018-02-20T06:49:59.426Z,2.07
2018-02-20T06:51:13.451Z,2.09
2018-02-20T06:52:27.744Z,2.11
2018-02-20T06:53:42.561Z,2.11
2018-02-20T06:54:56.815Z,2.08
2018-02-20T06:56:10.840Z,2.06
2018-02-20T06:57:24.454Z,2.02
2018-02-20T06:58:39.289Z,2.03
2018-02-20T06:59:53.553Z,2.07
2018-02-20T07:01:06.838Z,2.12
2018-02-20T07:02:21.333Z,2.13
2018-02-20T07:03:35.323Z,2.14
2018-02-20T07:04:49.841Z,2.1
2018-02-20T07:06:04.332Z,2.08
2018-02-20T07:07:18.580Z,2.03
2018-02-20T07:08:32.846Z,2
2018-02-20T07:09:47.094Z,2
2018-02-20T07:11:01.389Z,1.95
2018-02-20T07:12:15.887Z,1.93
2018-02-20T07:13:29.680Z,1.94
2018-02-20T07:14:43.932Z,1.97
2018-02-20T07:15:57.951Z,2.01
2018-02-20T07:17:12.559Z,2.02
2018-02-20T07:18:26.602Z,2
2018-02-20T07:19:40.884Z,2.01
2018-02-20T07:20:55.149Z,2.04
2018-02-20T07:22:08.899Z,2.05
2018-02-20T07:23:23.252Z,2.09
2018-02-20T07:24:37.033Z,2.08
2018-02-20T07:25:51.035Z,2.04
2018-02-20T07:27:05.780Z,2.05
2018-02-20T07:28:19.873Z,2.12
2018-02-20T07:29:34.730Z,2.2
2018-02-20T07:30:49.131Z,2.29
2018-02-20T07:32:03.628Z,2.37
2018-02-20T07:33:18.397Z,2.44
2018-02-20T07:34:32.181Z,2.49
2018-02-20T07:35:46.977Z,2.52
2018-02-20T07:37:01.303Z,2.51
2018-02-20T07:38:15.798Z,2.54
2018-02-20T07:39:30.646Z,2.56
2018-02-20T07:40:45.207Z,2.57
2018-02-20T07:41:59.600Z,2.6
2018-02-20T07:43:13.860Z,2.59
2018-02-20T07:44:27.368Z,2.52
2018-02-20T07:45:41.648Z,2.52
2018-02-20T07:46:56.173Z,2.52
2018-02-20T07:48:10.550Z,2.48
2018-02-20T07:49:24.633Z,2.52
2018-02-20T07:50:38.690Z,2.6
2018-02-20T07:51:53.466Z,2.64
2018-02-20T07:53:07.265Z,2.72
2018-02-20T07:54:22.314Z,2.84
2018-02-20T07:55:36.642Z,2.93
2018-02-20T07:56:51.135Z,3.04
2018-02-20T07:58:05.163Z,3.03
2018-02-20T07:59:19.495Z,3.08
2018-02-20T08:00:33.778Z,3.15
2018-02-20T08:01:48.290Z,3.22
2018-02-20T08:03:02.603Z,3.3
2018-02-20T08:04:16.956Z,3.38
2018-02-20T08:05:31.592Z,3.49
2018-02-20T08:06:46.394Z,3.53
2018-02-20T08:08:00.431Z,3.54
2018-02-20T08:09:14.918Z,3.54
2018-02-20T08:10:28.971Z,3.44
2018-02-20T08:11:42.536Z,3.37
2018-02-20T08:12:57.327Z,3.32
2018-02-20T08:14:11.359Z,3.25
2018-02-20T08:15:25.117Z,3.21
2018-02-20T08:16:39.146Z,3.16
2018-02-20T08:17:53.395Z,3.2
2018-02-20T08:19:08.437Z,3.27
2018-02-20T08:20:22.718Z,3.21
2018-02-20T08:21:36.735Z,3.18
2018-02-20T08:22:51.225Z,3.2
2018-02-20T08:24:05.785Z,3.21
2018-02-20T08:25:19.952Z,3.22
2018-02-20T08:26:34.192Z,3.3
2018-02-20T08:27:47.999Z,3.37
2018-02-20T08:29:02.513Z,3.52
2018-02-20T08:30:16.767Z,3.53
2018-02-20T08:31:31.079Z,3.53
2018-02-20T08:32:45.385Z,3.54
2018-02-20T08:33:59.612Z,3.58
2018-02-20T08:35:14.151Z,3.62
2018-02-20T08:36:27.931Z,3.63
2018-02-20T08:37:43.092Z,3.62
2018-02-20T08:38:57.331Z,3.7
2018-02-20T08:40:11.654Z,3.72
2018-02-20T08:41:25.930Z,3.78
2018-02-20T08:42:40.410Z,3.87
2018-02-20T08:43:54.922Z,3.89
2018-02-20T08:45:09.728Z,3.91
2018-02-20T08:46:23.298Z,3.93
2018-02-20T08:47:37.610Z,3.98
2018-02-20T08:48:51.918Z,4.02
2018-02-20T08:50:06.531Z,4.07
2018-02-20T08:51:20.575Z,4.16
2018-02-20T08:52:35.200Z,4.25
2018-02-20T08:53:49.246Z,4.34
2018-02-20T08:55:03.337Z,4.42
2018-02-20T08:56:17.984Z,4.49
2018-02-20T08:57:32.092Z,4.55
2018-02-20T08:58:45.874Z,4.62
2018-02-20T08:59:59.911Z,4.68
2018-02-20T09:01:14.276Z,4.74
2018-02-20T09:02:28.639Z,4.81
2018-02-20T09:03:42.430Z,4.87
2018-02-20T09:04:56.438Z,4.86
2018-02-20T09:06:10.959Z,4.89
2018-02-20T09:07:25.709Z,4.91
2018-02-20T09:08:40.046Z,4.94
2018-02-20T09:09:54.131Z,4.97
2018-02-20T09:11:08.251Z,5.01
2018-02-20T09:12:22.561Z,5.13
2018-02-20T09:13:36.556Z,5.22
2018-02-20T09:14:50.881Z,5.21
2018-02-20T09:16:05.460Z,5.16
2018-02-20T09:17:19.494Z,5.03
2018-02-20T09:27:40.494Z,4.76
2018-02-20T09:28:54.840Z,4.72
2018-02-20T09:30:08.642Z,4.73
2018-02-20T09:31:23.267Z,4.77
2018-02-20T09:32:36.993Z,4.81
2018-02-20T09:33:51.011Z,4.89
2018-02-20T09:35:05.799Z,4.93
2018-02-20T09:36:20.336Z,4.99
2018-02-20T09:37:34.838Z,5.06
2018-02-20T09:38:49.128Z,5.14
2018-02-20T09:40:02.659Z,5.21
2018-02-20T09:41:17.405Z,5.27
2018-02-20T09:42:31.711Z,5.33
2018-02-20T09:43:45.560Z,5.41
2018-02-20T09:44:59.329Z,5.47
2018-02-20T09:46:14.122Z,5.54
2018-02-20T09:47:29.271Z,5.57
2018-02-20T09:48:43.053Z,5.6
2018-02-20T09:49:57.567Z,5.66
2018-02-20T09:51:12.093Z,5.69
2018-02-20T09:52:26.715Z,5.72
2018-02-20T09:53:40.595Z,5.73
2018-02-20T09:54:55.199Z,5.78
2018-02-20T09:56:09.729Z,5.82
2018-02-20T09:57:23.771Z,5.84
2018-02-20T09:58:37.290Z,5.86
2018-02-20T09:59:51.314Z,5.83
2018-02-20T10:01:05.384Z,5.69
2018-02-20T10:02:19.471Z,5.64
2018-02-20T10:03:33.757Z,5.61
2018-02-20T10:04:47.579Z,5.65
2018-02-20T10:06:02.123Z,5.7
2018-02-20T10:07:16.012Z,5.71
2018-02-20T10:08:30.505Z,5.73
2018-02-20T10:09:45.231Z,5.72
2018-02-20T10:10:59.298Z,5.68
2018-02-20T10:12:13.954Z,5.64
2018-02-20T10:13:28.032Z,5.6
2018-02-20T10:14:42.784Z,5.55
2018-02-20T10:15:57.068Z,5.53
2018-02-20T10:17:11.957Z,5.52
2018-02-20T10:18:26.262Z,5.52
2018-02-20T10:19:40.268Z,5.48
2018-02-20T10:20:54.334Z,5.42
2018-02-20T10:22:08.376Z,5.41
2018-02-20T10:23:22.954Z,5.4
2018-02-20T10:24:37.504Z,5.39
2018-02-20T10:25:51.407Z,5.36
2018-02-20T10:27:05.171Z,5.34
2018-02-20T10:28:19.474Z,5.34
2018-02-20T10:29:34.014Z,5.28
2018-02-20T10:30:48.845Z,5.25
2018-02-20T10:32:03.217Z,5.18
2018-02-20T10:33:17.782Z,5.16
2018-02-20T10:34:32.545Z,5.16
2018-02-20T10:35:46.984Z,5.07
2018-02-20T10:37:01.374Z,5.05
2018-02-20T10:38:15.649Z,5.06
2018-02-20T10:39:29.424Z,5.09
2018-02-20T10:40:43.772Z,5.05
2018-02-20T10:41:58.151Z,5.07
2018-02-20T10:43:13.327Z,5.06
2018-02-20T10:44:27.428Z,5.06
2018-02-20T10:45:41.628Z,5.06
2018-02-20T10:46:55.493Z,5.07
2018-02-20T10:48:09.850Z,5.09
2018-02-20T10:49:24.051Z,5.15
2018-02-20T10:50:38.829Z,5.22
2018-02-20T10:51:53.121Z,5.27
2018-02-20T10:53:07.702Z,5.34
2018-02-20T10:54:21.772Z,5.41
2018-02-20T10:55:36.847Z,5.47
2018-02-20T10:56:51.752Z,5.51
2018-02-20T10:58:06.166Z,5.51
2018-02-20T10:59:20.955Z,5.48
2018-02-20T11:00:35.468Z,5.43
2018-02-20T11:01:50.148Z,5.45
2018-02-20T11:03:04.212Z,5.5
2018-02-20T11:04:18.820Z,5.56
2018-02-20T11:05:33.172Z,5.57
2018-02-20T11:06:47.221Z,5.61
2018-02-20T11:08:01.810Z,5.64
2018-02-20T11:09:16.383Z,5.68
2018-02-20T11:10:30.892Z,5.71
2018-02-20T11:11:45.173Z,5.73
2018-02-20T11:12:59.450Z,5.76
2018-02-20T11:14:14.575Z,5.79
2018-02-20T11:15:28.158Z,5.85
2018-02-20T11:16:42.483Z,5.91
2018-02-20T11:17:57.388Z,5.9
2018-02-20T11:19:12.107Z,5.86
2018-02-20T11:20:26.503Z,5.87
2018-02-20T11:21:40.565Z,5.9
2018-02-20T11:22:54.852Z,5.93
2018-02-20T11:24:09.414Z,6.05
2018-02-20T11:25:23.320Z,6.13
2018-02-20T11:26:37.640Z,6.2
2018-02-20T11:27:51.437Z,6.3
2018-02-20T11:29:05.228Z,6.32
2018-02-20T11:30:19.545Z,6.36
2018-02-20T11:31:33.619Z,6.4
2018-02-20T11:32:47.946Z,6.38
2018-02-20T11:34:02.516Z,6.44
2018-02-20T11:35:17.023Z,6.43
2018-02-20T11:36:31.584Z,6.49
2018-02-20T11:37:45.862Z,6.46
2018-02-20T11:39:14.845Z,6.4
2018-02-20T11:40:29.189Z,6.39
2018-02-20T11:41:42.999Z,6.31
2018-02-20T11:42:57.385Z,6.28
2018-02-20T11:44:11.534Z,6.23
2018-02-20T11:45:26.088Z,6.21
2018-02-20T11:46:40.229Z,6.24
2018-02-20T11:47:54.320Z,6.26
2018-02-20T11:49:08.495Z,6.29
2018-02-20T11:50:23.524Z,6.35
2018-02-20T11:51:38.363Z,6.37
2018-02-20T11:52:52.687Z,6.4
2018-02-20T11:54:06.465Z,6.42
2018-02-20T11:55:20.786Z,6.44
2018-02-20T11:56:35.205Z,6.48
2018-02-20T11:57:49.278Z,6.39
2018-02-20T11:59:03.852Z,6.3
2018-02-20T12:00:18.692Z,6.23
2018-02-20T12:01:32.989Z,6.18
2018-02-20T12:02:47.326Z,6.26
2018-02-20T12:04:01.847Z,6.29
2018-02-20T12:05:16.371Z,6.33
2018-02-20T12:06:30.654Z,6.37
2018-02-20T12:07:44.959Z,6.42
2018-02-20T12:08:59.795Z,6.48
2018-02-20T12:10:14.425Z,6.56
2018-02-20T12:11:28.263Z,6.62
2018-02-20T12:12:42.779Z,6.71
2018-02-20T12:13:57.119Z,6.8
2018-02-20T12:15:11.940Z,6.91
2018-02-20T12:16:26.337Z,6.99
2018-02-20T12:17:40.461Z,7.1
2018-02-20T12:18:54.192Z,7.21
2018-02-20T12:20:08.218Z,7.28
2018-02-20T12:21:22.707Z,7.31
2018-02-20T12:22:36.851Z,7.32
2018-02-20T12:23:51.218Z,7.32
2018-02-20T12:25:05.805Z,7.32
2018-02-20T12:26:19.645Z,7.34
2018-02-20T12:27:33.990Z,7.38
2018-02-20T12:28:48.061Z,7.44
2018-02-20T12:30:02.262Z,7.51
2018-02-20T12:31:15.904Z,7.56
2018-02-20T12:32:30.459Z,7.64
2018-02-20T12:33:45.428Z,7.71
2018-02-20T12:35:00.059Z,7.83
2018-02-20T12:36:13.896Z,7.92
2018-02-20T12:37:28.497Z,8.02
2018-02-20T12:38:43.082Z,8.1
2018-02-20T12:39:57.944Z,8.17
2018-02-20T12:41:12.444Z,8.2
2018-02-20T12:42:26.878Z,8.25
2018-02-20T12:43:41.351Z,8.25
2018-02-20T12:44:55.572Z,8.22
2018-02-20T12:46:10.420Z,8.23
2018-02-20T12:47:24.999Z,8.25
2018-02-20T12:48:39.173Z,8.24
2018-02-20T12:49:55.014Z,8.14
2018-02-20T12:51:09.371Z,8.1
2018-02-20T12:52:24.333Z,8.13
2018-02-20T12:53:39.865Z,8.14
2018-02-20T12:54:54.383Z,8.14
2018-02-20T12:56:08.722Z,8.18
2018-02-20T12:57:23.115Z,8.2
2018-02-20T12:58:36.984Z,8.21
2018-02-20T12:59:50.841Z,8.22
2018-02-20T13:01:05.457Z,8.23
2018-02-20T13:02:20.816Z,8.25
2018-02-20T13:03:35.579Z,8.26
2018-02-20T13:04:50.241Z,8.27
2018-02-20T13:06:05.210Z,8.25
2018-02-20T13:07:19.999Z,8.23
2018-02-20T13:08:33.861Z,8.16
2018-02-20T13:09:49.048Z,8.14
2018-02-20T13:11:06.024Z,8.11
2018-02-20T13:12:21.530Z,8.12
2018-02-20T13:13:36.273Z,8.1
2018-02-20T13:14:51.297Z,8.01
2018-02-20T13:16:06.067Z,7.8
2018-02-20T13:17:21.595Z,7.53
2018-02-20T13:18:35.714Z,7.34
2018-02-20T13:19:49.446Z,7.2
2018-02-20T13:21:03.575Z,7.1
2018-02-20T13:22:17.679Z,7.14
2018-02-20T13:23:32.137Z,7.2
2018-02-20T13:24:46.932Z,7.24
2018-02-20T13:26:01.986Z,7.21
2018-02-20T13:27:16.809Z,7.15
2018-02-20T13:28:31.440Z,7.09
2018-02-20T13:29:46.105Z,7.1
2018-02-20T13:30:59.416Z,7.12
2018-02-20T13:32:13.475Z,7.14
2018-02-20T13:33:28.105Z,7.04
2018-02-20T13:34:42.345Z,7.03
2018-02-20T13:35:57.510Z,7.01
2018-02-20T13:37:11.854Z,6.96
2018-02-20T13:38:26.349Z,6.89
2018-02-20T13:39:40.828Z,6.86
2018-02-20T13:41:10.183Z,6.82
2018-02-20T13:42:24.460Z,6.82
2018-02-20T13:43:38.720Z,6.85
2018-02-20T13:44:53.788Z,6.91
2018-02-20T13:46:07.980Z,6.86
2018-02-20T13:47:22.589Z,6.78
2018-02-20T13:48:37.729Z,6.78
2018-02-20T13:49:52.320Z,6.79
2018-02-20T13:51:06.880Z,6.79
2018-02-20T13:52:20.453Z,6.69
2018-02-20T13:53:34.859Z,6.62
2018-02-20T13:54:49.009Z,6.56
2018-02-20T13:56:03.096Z,6.54
2018-02-20T13:57:18.080Z,6.51
2018-02-20T13:58:32.340Z,6.5
2018-02-20T13:59:46.879Z,6.46
2018-02-20T14:01:02.097Z,6.46
2018-02-20T14:02:16.645Z,6.51
2018-02-20T14:03:30.696Z,6.54
2018-02-20T14:04:45.389Z,6.57
2018-02-20T14:05:59.491Z,6.62
2018-02-20T14:07:14.571Z,6.63
2018-02-20T14:08:29.113Z,6.64
2018-02-20T14:09:43.918Z,6.72
2018-02-20T14:10:57.781Z,6.77
2018-02-20T14:12:11.834Z,6.78
2018-02-20T14:13:26.435Z,6.78
2018-02-20T14:14:39.975Z,6.7
2018-02-20T14:15:54.020Z,6.64
2018-02-20T14:17:08.369Z,6.55
2018-02-20T14:18:22.921Z,6.44
2018-02-20T14:19:37.635Z,6.34
2018-02-20T14:20:52.531Z,6.28
2018-02-20T14:22:07.199Z,6.2
2018-02-20T14:23:21.818Z,6.22
2018-02-20T14:24:36.140Z,6.28
2018-02-20T14:25:50.532Z,6.35
2018-02-20T14:27:05.185Z,6.49
2018-02-20T14:28:18.961Z,6.6
2018-02-20T14:29:33.041Z,6.68
2018-02-20T14:30:47.577Z,6.78
2018-02-20T14:32:02.205Z,6.83
2018-02-20T14:33:16.590Z,6.86
2018-02-20T14:34:31.118Z,6.87
2018-02-20T14:35:45.688Z,6.79
2018-02-20T14:36:59.600Z,6.68
2018-02-20T14:38:14.582Z,6.62
2018-02-20T14:39:28.757Z,6.65
2018-02-20T14:40:43.907Z,6.69
2018-02-20T14:41:59.338Z,6.75
2018-02-20T14:43:13.950Z,6.74
2018-02-20T14:44:28.510Z,6.64
2018-02-20T14:45:42.664Z,6.58
2018-02-20T14:46:57.079Z,6.54
2018-02-20T14:48:11.873Z,6.5
2018-02-20T14:49:26.411Z,6.5
2018-02-20T14:50:41.360Z,6.56
2018-02-20T14:51:55.759Z,6.6
2018-02-20T14:53:10.176Z,6.54
2018-02-20T14:54:24.395Z,6.46
2018-02-20T14:55:38.628Z,6.35
2018-02-20T14:56:53.456Z,6.26
2018-02-20T14:58:08.134Z,6.15
2018-02-20T14:59:22.810Z,6.02
2018-02-20T15:00:37.271Z,5.96
2018-02-20T15:01:51.545Z,5.94
2018-02-20T15:03:06.550Z,5.94
2018-02-20T15:04:21.228Z,5.98
2018-02-20T15:05:35.856Z,5.99
2018-02-20T15:06:50.831Z,6.07
2018-02-20T15:08:05.281Z,6.08
2018-02-20T15:09:20.023Z,6.04
2018-02-20T15:10:34.130Z,5.96
2018-02-20T15:11:49.178Z,5.92
2018-02-20T15:13:03.930Z,5.92
2018-02-20T15:14:18.024Z,5.87
2018-02-20T15:15:32.870Z,5.86
2018-02-20T15:16:47.497Z,5.81
2018-02-20T15:18:02.558Z,5.8
2018-02-20T15:19:16.800Z,5.8
2018-02-20T15:20:31.176Z,5.79
2018-02-20T15:21:45.926Z,5.72
2018-02-20T15:23:00.661Z,5.68
2018-02-20T15:24:15.037Z,5.68
2018-02-20T15:25:29.815Z,5.66
2018-02-20T15:26:44.291Z,5.6
2018-02-20T15:27:59.549Z,5.6
2018-02-20T15:29:14.515Z,5.54
2018-02-20T15:30:28.545Z,5.56
2018-02-20T15:31:44.153Z,5.52
2018-02-20T15:32:58.771Z,5.5
2018-02-20T15:34:14.906Z,5.47
2018-02-20T15:37:01.212Z,5.44
2018-02-20T15:38:18.045Z,5.37
2018-02-20T15:39:35.050Z,5.34
2018-02-20T15:40:49.641Z,5.29
2018-02-20T15:42:04.539Z,5.23
2018-02-20T15:43:19.387Z,5.17
2018-02-20T15:44:35.175Z,5.15
2018-02-20T15:45:51.300Z,5.1
2018-02-20T15:47:05.882Z,5.15
2018-02-20T15:48:20.700Z,5.19
2018-02-20T15:49:35.130Z,5.23
2018-02-20T15:50:50.636Z,5.23
2018-02-20T15:52:05.582Z,5.21
2018-02-20T15:53:20.190Z,5.14
2018-02-20T15:54:34.219Z,5.12
2018-02-20T15:55:48.527Z,5.08
2018-02-20T15:57:02.962Z,5.08
2018-02-20T15:58:17.576Z,5.03
2018-02-20T15:59:31.637Z,4.97
2018-02-20T16:00:46.905Z,4.92
2018-02-20T16:02:01.330Z,4.86
2018-02-20T16:03:16.022Z,4.79
2018-02-20T16:04:30.932Z,4.76
2018-02-20T16:05:45.773Z,4.72
2018-02-20T16:07:00.693Z,4.67
2018-02-20T16:08:30.264Z,4.66
2018-02-20T16:09:45.389Z,4.64
2018-02-20T16:11:01.465Z,4.65
2018-02-20T16:12:16.608Z,4.69
2018-02-20T16:13:31.012Z,4.72
2018-02-20T16:14:46.582Z,4.8
2018-02-20T16:16:01.713Z,4.75
2018-02-20T16:17:18.148Z,4.78
2018-02-20T16:18:33.552Z,4.77
2018-02-20T16:19:48.654Z,4.81
2018-02-20T16:21:03.222Z,4.78
2018-02-20T16:22:18.486Z,4.76
2018-02-20T16:23:33.557Z,4.75
2018-02-20T16:24:48.242Z,4.72
2018-02-20T16:26:02.677Z,4.72
2018-02-20T16:27:17.847Z,4.73
2018-02-20T16:28:33.458Z,4.72
2018-02-20T16:29:48.741Z,4.72
2018-02-20T16:31:04.183Z,4.74
2018-02-20T16:32:19.450Z,4.75
2018-02-20T16:33:34.575Z,4.77
2018-02-20T16:34:49.857Z,4.78
2018-02-20T16:36:04.542Z,4.8
2018-02-20T16:37:19.576Z,4.77
2018-02-20T16:38:49.040Z,4.73
2018-02-20T16:40:18.654Z,4.7
2018-02-20T16:41:34.249Z,4.71
2018-02-20T16:42:49.593Z,4.7
2018-02-20T16:44:04.660Z,4.69
2018-02-20T16:45:20.147Z,4.69